createdAt,value
2019-01-25T00:00:39.859Z,31
2019-01-25T00:01:30.150Z,31.1
2019-01-25T00:02:19.942Z,31
2019-01-25T00:03:15.930Z,31
2019-01-25T00:04:00.616Z,31
2019-01-25T00:04:50.458Z,30.9
2019-01-25T00:05:40.157Z,30.9
2019-01-25T00:06:30.499Z,30.9
2019-01-25T00:07:20.544Z,31
2019-01-25T00:08:10.937Z,30.9
2019-01-25T00:09:00.941Z,30.9
2019-01-25T00:09:51.014Z,31
2019-01-25T00:10:40.514Z,30.9
2019-01-25T00:11:30.846Z,30.9
2019-01-25T00:12:20.626Z,30.9
2019-01-25T00:13:11.229Z,30.9
2019-01-25T00:14:00.744Z,30.9
2019-01-25T00:14:51.351Z,30.9
2019-01-25T00:15:40.636Z,30.9
2019-01-25T00:16:30.934Z,30.9
2019-01-25T00:17:21.781Z,30.9
2019-01-25T00:18:11.326Z,30.9
2019-01-25T00:19:01.699Z,30.9
2019-01-25T00:19:51.696Z,30.9
2019-01-25T00:20:41.758Z,30.9
2019-01-25T00:21:31.821Z,30.9
2019-01-25T00:22:21.928Z,30.8
2019-01-25T00:23:11.918Z,30.8
2019-01-25T00:24:03.273Z,30.8
2019-01-25T00:24:52.083Z,30.8
2019-01-25T00:25:41.828Z,30.8
2019-01-25T00:26:32.160Z,30.8
2019-01-25T00:27:21.723Z,30.8
2019-01-25T00:28:11.728Z,30.8
2019-01-25T00:29:02.653Z,30.8
2019-01-25T00:29:52.115Z,30.8
2019-01-25T00:30:42.790Z,30.8
2019-01-25T00:31:33.858Z,30.8
2019-01-25T00:32:22.831Z,30.8
2019-01-25T00:33:12.632Z,30.8
2019-01-25T00:34:02.398Z,30.7
2019-01-25T00:34:53.008Z,30.8
2019-01-25T00:35:42.807Z,30.8
2019-01-25T00:36:32.608Z,30.8
2019-01-25T00:37:22.930Z,30.8
2019-01-25T00:38:12.990Z,30.7
2019-01-25T00:39:02.490Z,30.7
2019-01-25T00:39:52.265Z,30.7
2019-01-25T00:40:44.457Z,30.7
2019-01-25T00:41:33.192Z,30.7
2019-01-25T00:42:22.432Z,30.7
2019-01-25T00:43:13.367Z,30.6
2019-01-25T00:44:02.802Z,30.7
2019-01-25T00:44:53.437Z,30.7
2019-01-25T00:45:43.769Z,30.6
2019-01-25T00:46:33.251Z,30.6
2019-01-25T00:47:23.627Z,30.6
2019-01-25T00:48:12.838Z,30.6
2019-01-25T00:49:02.881Z,30.6
2019-01-25T00:49:53.501Z,30.6
2019-01-25T00:50:43.546Z,30.6
2019-01-25T00:51:33.347Z,30.6
2019-01-25T00:52:23.667Z,30.6
2019-01-25T00:53:14.012Z,30.6
2019-01-25T00:54:03.526Z,30.6
2019-01-25T00:54:52.741Z,30.6
2019-01-25T00:55:44.223Z,30.6
2019-01-25T00:56:33.693Z,30.6
2019-01-25T00:57:23.739Z,30.6
2019-01-25T00:58:14.643Z,30.6
2019-01-25T00:59:04.176Z,30.5
2019-01-25T00:59:54.463Z,30.5
2019-01-25T01:00:44.262Z,30.6
2019-01-25T01:01:33.795Z,30.5
2019-01-25T01:02:24.935Z,30.5
2019-01-25T01:03:14.708Z,30.5
2019-01-25T01:04:04.218Z,30.4
2019-01-25T01:04:54.565Z,30.4
2019-01-25T01:05:44.323Z,30.4
2019-01-25T01:06:34.661Z,30.4
2019-01-25T01:07:24.983Z,30.5
2019-01-25T01:08:14.775Z,30.4
2019-01-25T01:09:05.375Z,30.4
2019-01-25T01:09:55.167Z,30.4
2019-01-25T01:10:45.328Z,30.4
2019-01-25T01:11:35.020Z,30.4
2019-01-25T01:12:25.332Z,30.4
2019-01-25T01:13:15.128Z,30.4
2019-01-25T01:14:05.455Z,30.4
2019-01-25T01:14:55.787Z,30.4
2019-01-25T01:15:45.301Z,30.4
2019-01-25T01:16:35.612Z,30.4
2019-01-25T01:17:25.952Z,30.4
2019-01-25T01:18:15.225Z,30.4
2019-01-25T01:19:05.773Z,30.4
2019-01-25T01:19:55.586Z,30.4
2019-01-25T01:20:45.899Z,30.4
2019-01-25T01:21:35.953Z,30.3
2019-01-25T01:22:25.744Z,30.4
2019-01-25T01:23:15.525Z,30.3
2019-01-25T01:24:05.872Z,30.3
2019-01-25T01:24:56.184Z,30.3
2019-01-25T01:25:45.984Z,30.3
2019-01-25T01:26:36.032Z,30.3
2019-01-25T01:27:26.357Z,30.3
2019-01-25T01:28:16.712Z,30.3
2019-01-25T01:29:06.216Z,30.3
2019-01-25T01:29:56.277Z,30.3
2019-01-25T01:30:46.614Z,30.3
2019-01-25T01:31:36.399Z,30.3
2019-01-25T01:32:26.156Z,30.3
2019-01-25T01:33:17.050Z,30.3
2019-01-25T01:34:06.617Z,30.3
2019-01-25T01:34:56.874Z,30.3
2019-01-25T01:35:46.663Z,30.3
2019-01-25T01:36:36.986Z,30.2
2019-01-25T01:37:26.798Z,30.3
2019-01-25T01:38:17.146Z,30.3
2019-01-25T01:39:06.343Z,30.2
2019-01-25T01:39:56.971Z,30.2
2019-01-25T01:40:47.318Z,30.2
2019-01-25T01:41:37.393Z,30.2
2019-01-25T01:42:27.480Z,30.2
2019-01-25T01:43:16.911Z,30.2
2019-01-25T01:44:07.258Z,30.2
2019-01-25T01:44:57.318Z,30.2
2019-01-25T01:45:47.075Z,30.2
2019-01-25T01:46:37.730Z,30.2
2019-01-25T01:47:27.478Z,30.1
2019-01-25T01:48:17.538Z,30.1
2019-01-25T01:49:07.355Z,30.1
2019-01-25T01:49:57.660Z,30.1
2019-01-25T01:50:47.175Z,30.1
2019-01-25T01:51:38.072Z,30.1
2019-01-25T01:52:27.539Z,30.1
2019-01-25T01:53:17.613Z,30.1
2019-01-25T01:54:08.210Z,30.1
2019-01-25T01:54:57.997Z,30.1
2019-01-25T01:55:48.624Z,30.1
2019-01-25T01:56:37.612Z,30.1
2019-01-25T01:57:28.437Z,30.1
2019-01-25T01:58:18.497Z,30.1
2019-01-25T01:59:08.857Z,30.1
2019-01-25T01:59:57.850Z,30.1
2019-01-25T02:00:48.672Z,30.1
2019-01-25T02:01:38.246Z,30.2
2019-01-25T02:02:28.522Z,30.3
2019-01-25T02:03:18.569Z,30.4
2019-01-25T02:04:08.695Z,30.4
2019-01-25T02:04:59.237Z,30.5
2019-01-25T02:05:48.572Z,30.6
2019-01-25T02:06:38.814Z,30.7
2019-01-25T02:07:28.858Z,30.8
2019-01-25T02:08:19.191Z,30.9
2019-01-25T02:09:09.273Z,30.9
2019-01-25T02:09:58.819Z,31
2019-01-25T02:10:49.359Z,31.1
2019-01-25T02:11:39.164Z,31.2
2019-01-25T02:12:29.753Z,31.3
2019-01-25T02:13:19.543Z,31.3
2019-01-25T02:14:09.549Z,31.4
2019-01-25T02:14:59.411Z,31.4
2019-01-25T02:15:48.876Z,31.5
2019-01-25T02:16:39.501Z,31.6
2019-01-25T02:17:29.806Z,31.6
2019-01-25T02:18:20.168Z,31.7
2019-01-25T02:19:09.721Z,31.8
2019-01-25T02:20:00.298Z,31.8
2019-01-25T02:20:50.063Z,31.9
2019-01-25T02:21:39.841Z,31.9
2019-01-25T02:22:29.998Z,32
2019-01-25T02:23:20.238Z,32.1
2019-01-25T02:24:10.338Z,32.1
2019-01-25T02:25:00.338Z,32.2
2019-01-25T02:25:49.853Z,32.3
2019-01-25T02:26:40.173Z,32.3
2019-01-25T02:27:30.268Z,32.4
2019-01-25T02:28:20.308Z,32.4
2019-01-25T02:29:10.635Z,32.5
2019-01-25T02:30:00.758Z,32.6
2019-01-25T02:30:50.538Z,32.6
2019-01-25T02:31:40.556Z,32.8
2019-01-25T02:32:30.636Z,32.8
2019-01-25T02:33:21.251Z,32.8
2019-01-25T02:34:11.296Z,32.9
2019-01-25T02:35:00.867Z,33
2019-01-25T02:35:51.156Z,33.1
2019-01-25T02:36:40.614Z,33.2
2019-01-25T02:37:31.628Z,33.2
2019-01-25T02:38:20.462Z,33.3
2019-01-25T02:39:10.852Z,33.4
2019-01-25T02:40:01.140Z,33.4
2019-01-25T02:40:51.207Z,33.5
2019-01-25T02:41:41.575Z,33.6
2019-01-25T02:42:33.207Z,33.6
2019-01-25T02:43:21.405Z,33.7
2019-01-25T02:44:11.146Z,33.8
2019-01-25T02:45:01.484Z,33.9
2019-01-25T02:45:51.810Z,33.9
2019-01-25T02:46:41.586Z,34
2019-01-25T02:47:31.118Z,34.1
2019-01-25T02:48:21.782Z,34.2
2019-01-25T02:49:11.757Z,34.3
2019-01-25T02:50:02.272Z,34.4
2019-01-25T02:50:51.302Z,34.5
2019-01-25T02:51:42.214Z,34.6
2019-01-25T02:52:32.554Z,34.6
2019-01-25T02:53:22.060Z,34.8
2019-01-25T02:54:12.391Z,34.8
2019-01-25T02:55:02.238Z,34.9
2019-01-25T02:55:52.241Z,35
2019-01-25T02:56:42.343Z,35.1
2019-01-25T02:57:32.969Z,35.1
2019-01-25T02:58:21.854Z,35.1
2019-01-25T02:59:12.748Z,35.2
2019-01-25T03:00:02.497Z,35.3
2019-01-25T03:00:52.905Z,35.3
2019-01-25T03:01:42.623Z,35.3
2019-01-25T03:02:33.329Z,35.4
2019-01-25T03:03:23.343Z,35.4
2019-01-25T03:04:13.356Z,35.4
2019-01-25T03:05:03.143Z,35.5
2019-01-25T03:08:36.159Z,35.6
2019-01-25T03:09:25.536Z,35.7
2019-01-25T03:10:15.902Z,35.7
2019-01-25T03:11:06.189Z,35.8
2019-01-25T03:11:55.707Z,35.8
2019-01-25T03:12:46.410Z,35.8
2019-01-25T03:13:36.162Z,35.8
2019-01-25T03:14:26.237Z,35.9
2019-01-25T03:15:16.494Z,35.9
2019-01-25T03:16:06.511Z,35.9
2019-01-25T03:16:55.752Z,35.9
2019-01-25T03:17:46.767Z,35.9
2019-01-25T03:18:36.178Z,36
2019-01-25T03:19:26.517Z,36.1
2019-01-25T03:20:16.802Z,36.1
2019-01-25T03:21:08.475Z,36.1
2019-01-25T03:21:56.687Z,36.1
2019-01-25T03:22:46.739Z,36.1
2019-01-25T03:23:36.845Z,36.2
2019-01-25T03:24:26.877Z,36.2
2019-01-25T03:25:16.620Z,36.2
2019-01-25T03:26:07.252Z,36.3
2019-01-25T03:26:57.007Z,36.3
2019-01-25T03:27:47.074Z,36.2
2019-01-25T03:28:37.443Z,36.3
2019-01-25T03:29:27.201Z,36.3
2019-01-25T03:30:17.703Z,36.3
2019-01-25T03:31:07.386Z,36.2
2019-01-25T03:31:57.510Z,36.3
2019-01-25T03:32:47.295Z,36.3
2019-01-25T03:33:37.501Z,36.3
2019-01-25T03:34:27.859Z,36.3
2019-01-25T03:35:17.903Z,36.3
2019-01-25T03:36:07.648Z,36.3
2019-01-25T03:36:57.394Z,36.3
2019-01-25T03:37:47.753Z,36.3
2019-01-25T03:38:37.857Z,36.3
2019-01-25T03:39:27.659Z,36.3
2019-01-25T03:40:18.207Z,36.3
2019-01-25T03:41:08.262Z,36.4
2019-01-25T03:41:57.739Z,36.4
2019-01-25T03:42:48.423Z,36.3
2019-01-25T03:43:38.160Z,36.4
2019-01-25T03:44:28.482Z,36.4
2019-01-25T03:45:18.549Z,36.4
2019-01-25T03:46:08.339Z,36.4
2019-01-25T03:46:58.664Z,36.4
2019-01-25T03:47:48.565Z,36.4
2019-01-25T03:48:38.515Z,36.4
2019-01-25T03:49:28.581Z,36.4
2019-01-25T03:50:18.921Z,36.4
2019-01-25T03:51:08.679Z,36.5
2019-01-25T03:51:59.022Z,36.5
2019-01-25T03:52:48.506Z,36.5
2019-01-25T03:53:39.130Z,36.5
2019-01-25T03:54:29.162Z,36.5
2019-01-25T03:55:18.704Z,36.5
2019-01-25T03:56:09.307Z,36.5
2019-01-25T03:56:59.370Z,36.5
2019-01-25T03:57:49.130Z,36.5
2019-01-25T03:58:39.175Z,36.5
2019-01-25T03:59:29.533Z,36.5
2019-01-25T04:00:19.027Z,36.5
2019-01-25T04:01:09.332Z,36.5
2019-01-25T04:01:59.425Z,36.5
2019-01-25T04:02:49.177Z,36.4
2019-01-25T04:03:39.794Z,36.4
2019-01-25T04:04:28.726Z,36.4
2019-01-25T04:05:19.927Z,36.4
2019-01-25T04:06:09.986Z,36.4
2019-01-25T04:06:59.444Z,36.4
2019-01-25T04:07:50.207Z,36.4
2019-01-25T04:08:39.592Z,36.4
2019-01-25T04:09:29.920Z,36.4
2019-01-25T04:10:19.717Z,36.4
2019-01-25T04:11:10.048Z,36.4
2019-01-25T04:12:00.121Z,36.4
2019-01-25T04:12:50.154Z,36.4
2019-01-25T04:13:39.951Z,36.4
2019-01-25T04:14:30.601Z,36.4
2019-01-25T04:15:20.306Z,36.4
2019-01-25T04:16:10.208Z,36.4
2019-01-25T04:17:00.426Z,36.5
2019-01-25T04:17:49.993Z,36.4
2019-01-25T04:18:40.896Z,36.4
2019-01-25T04:19:30.328Z,36.4
2019-01-25T04:20:21.016Z,36.4
2019-01-25T04:21:10.813Z,36.4
2019-01-25T04:22:00.789Z,36.4
2019-01-25T04:22:50.878Z,36.4
2019-01-25T04:23:41.171Z,36.4
2019-01-25T04:24:30.925Z,36.4
2019-01-25T04:25:21.357Z,36.5
2019-01-25T04:26:11.401Z,36.5
2019-01-25T04:27:01.115Z,36.6
2019-01-25T04:27:50.337Z,36.6
2019-01-25T04:28:41.230Z,36.6
2019-01-25T04:29:31.635Z,36.6
2019-01-25T04:30:21.482Z,36.6
2019-01-25T04:31:11.503Z,36.6
2019-01-25T04:32:01.442Z,36.6
2019-01-25T04:32:51.608Z,36.6
2019-01-25T04:33:41.855Z,36.6
2019-01-25T04:34:31.897Z,36.6
2019-01-25T04:35:22.114Z,36.5
2019-01-25T04:36:11.532Z,36.4
2019-01-25T04:37:01.850Z,36.4
2019-01-25T04:37:52.202Z,36.3
2019-01-25T04:38:42.253Z,36.3
2019-01-25T04:39:31.665Z,36.3
2019-01-25T04:40:22.099Z,36.2
2019-01-25T04:41:17.312Z,36.2
2019-01-25T04:42:02.406Z,36.2
2019-01-25T04:42:52.254Z,36.2
2019-01-25T04:43:42.237Z,36.2
2019-01-25T04:44:31.781Z,36.2
2019-01-25T04:45:22.384Z,36.1
2019-01-25T04:46:12.449Z,36.1
2019-01-25T04:47:02.256Z,36.1
2019-01-25T04:47:52.561Z,36.1
2019-01-25T04:48:42.653Z,36.1
2019-01-25T04:49:32.168Z,36.1
2019-01-25T04:50:24.304Z,36.1
2019-01-25T04:51:12.840Z,36
2019-01-25T04:52:01.995Z,36
2019-01-25T04:52:52.957Z,36
2019-01-25T04:53:43.064Z,36
2019-01-25T04:54:33.266Z,36
2019-01-25T04:55:22.616Z,36
2019-01-25T04:56:13.161Z,35.9
2019-01-25T04:57:03.518Z,35.9
2019-01-25T04:57:53.594Z,35.9
2019-01-25T04:58:43.018Z,35.9
2019-01-25T04:59:33.414Z,35.9
2019-01-25T05:00:23.760Z,35.9
2019-01-25T05:01:13.766Z,35.8
2019-01-25T05:02:03.800Z,35.8
2019-01-25T05:02:53.031Z,35.8
2019-01-25T05:03:43.985Z,35.8
2019-01-25T05:04:33.411Z,35.8
2019-01-25T05:05:23.780Z,35.8
2019-01-25T05:06:14.148Z,35.7
2019-01-25T05:07:04.180Z,35.7
2019-01-25T05:07:53.689Z,35.6
2019-01-25T05:08:43.988Z,35.6
2019-01-25T05:09:34.091Z,35.6
2019-01-25T05:10:24.375Z,35.6
2019-01-25T05:11:22.935Z,35.6
2019-01-25T05:12:04.490Z,35.5
2019-01-25T05:12:58.546Z,35.5
2019-01-25T05:13:44.635Z,35.4
2019-01-25T05:14:34.406Z,35.4
2019-01-25T05:15:24.780Z,35.4
2019-01-25T05:16:14.851Z,35.4
2019-01-25T05:17:04.819Z,35.3
2019-01-25T05:17:54.908Z,35.3
2019-01-25T05:18:44.725Z,35.3
2019-01-25T05:19:34.707Z,35.3
2019-01-25T05:20:25.072Z,35.3
2019-01-25T05:21:15.210Z,35.3
2019-01-25T05:22:04.343Z,35.2
2019-01-25T05:22:54.423Z,35.2
2019-01-25T05:23:45.034Z,35.2
2019-01-25T05:24:35.113Z,35.1
2019-01-25T05:25:24.858Z,35.1
2019-01-25T05:26:15.462Z,35.1
2019-01-25T05:27:05.515Z,35.1
2019-01-25T05:27:55.274Z,35.1
2019-01-25T05:28:45.071Z,35.1
2019-01-25T05:29:35.129Z,35.1
2019-01-25T05:30:25.761Z,35
2019-01-25T05:31:15.271Z,34.9
2019-01-25T05:32:05.601Z,35
2019-01-25T05:32:55.618Z,35
2019-01-25T05:33:46.004Z,34.9
2019-01-25T05:34:35.743Z,34.9
2019-01-25T05:35:25.818Z,34.9
2019-01-25T05:36:15.856Z,34.9
2019-01-25T05:37:05.670Z,34.9
2019-01-25T05:37:56.274Z,34.9
2019-01-25T05:38:46.017Z,34.8
2019-01-25T05:39:36.078Z,34.8
2019-01-25T05:40:25.902Z,34.8
2019-01-25T05:41:16.479Z,34.8
2019-01-25T05:42:06.543Z,34.8
2019-01-25T05:42:56.583Z,34.8
2019-01-25T05:43:46.376Z,34.7
2019-01-25T05:44:36.417Z,34.7
2019-01-25T05:45:26.873Z,34.7
2019-01-25T05:46:16.557Z,34.6
2019-01-25T05:47:06.858Z,34.6
2019-01-25T05:47:56.693Z,34.6
2019-01-25T05:48:47.000Z,34.6
2019-01-25T05:49:37.048Z,34.6
2019-01-25T05:50:27.142Z,34.6
2019-01-25T05:51:17.160Z,34.5
2019-01-25T05:52:06.920Z,34.5
2019-01-25T05:52:57.298Z,34.4
2019-01-25T05:53:47.014Z,34.4
2019-01-25T05:54:36.540Z,34.4
2019-01-25T05:55:27.172Z,34.4
2019-01-25T05:56:16.938Z,34.4
2019-01-25T05:57:07.277Z,34.4
2019-01-25T05:57:57.597Z,34.4
2019-01-25T05:58:47.380Z,34.4
2019-01-25T05:59:37.172Z,34.4
2019-01-25T06:00:27.778Z,34.3
2019-01-25T06:01:17.860Z,34.3
2019-01-25T06:02:07.662Z,34.3
2019-01-25T06:02:57.398Z,34.3
2019-01-25T06:03:47.435Z,34.3
2019-01-25T06:04:38.067Z,34.3
2019-01-25T06:06:35.375Z,34.3
2019-01-25T06:07:25.584Z,34.3
2019-01-25T06:08:14.836Z,34.3
2019-01-25T06:09:05.479Z,34.2
2019-01-25T06:09:55.836Z,34.2
2019-01-25T06:10:45.819Z,34.2
2019-01-25T06:11:40.759Z,34.2
2019-01-25T06:12:25.651Z,34.1
2019-01-25T06:13:15.440Z,34.1
2019-01-25T06:14:06.041Z,34.1
2019-01-25T06:14:56.126Z,34.1
2019-01-25T06:15:46.213Z,34.1
2019-01-25T06:16:36.538Z,34.1
2019-01-25T06:17:26.008Z,34.1
2019-01-25T06:18:16.387Z,34.1
2019-01-25T06:19:06.419Z,34.1
2019-01-25T06:19:55.919Z,34.1
2019-01-25T06:20:46.540Z,34
2019-01-25T06:21:35.993Z,34
2019-01-25T06:22:26.379Z,34
2019-01-25T06:23:16.376Z,33.9
2019-01-25T06:24:06.734Z,33.9
2019-01-25T06:24:56.820Z,33.9
2019-01-25T06:25:46.665Z,33.9
2019-01-25T06:26:37.177Z,33.9
2019-01-25T06:27:26.667Z,33.9
2019-01-25T06:28:17.272Z,33.8
2019-01-25T06:29:07.045Z,33.8
2019-01-25T06:29:57.113Z,33.8
2019-01-25T06:30:46.610Z,33.8
2019-01-25T06:31:37.239Z,33.8
2019-01-25T06:32:27.555Z,33.8
2019-01-25T06:33:17.384Z,33.7
2019-01-25T06:34:07.198Z,33.8
2019-01-25T06:34:57.467Z,33.7
2019-01-25T06:35:47.547Z,33.7
2019-01-25T06:36:37.879Z,33.6
2019-01-25T06:37:27.362Z,33.6
2019-01-25T06:38:16.562Z,33.6
2019-01-25T06:39:07.771Z,33.6
2019-01-25T06:39:57.227Z,33.5
2019-01-25T06:40:47.037Z,33.4
2019-01-25T06:41:46.085Z,33.4
2019-01-25T06:42:27.969Z,33.3
2019-01-25T06:43:17.794Z,33.2
2019-01-25T06:44:07.551Z,33.1
2019-01-25T06:44:57.581Z,33.1
2019-01-25T06:45:48.935Z,33
2019-01-25T06:46:37.436Z,32.9
2019-01-25T06:47:28.011Z,32.9
2019-01-25T06:48:18.146Z,32.8
2019-01-25T06:49:07.923Z,32.8
2019-01-25T06:49:58.473Z,32.7
2019-01-25T06:50:48.309Z,32.7
2019-01-25T06:51:38.581Z,32.6
2019-01-25T06:52:28.381Z,32.6
2019-01-25T06:53:18.748Z,32.5
2019-01-25T06:54:09.036Z,32.6
2019-01-25T06:54:58.833Z,32.5
2019-01-25T06:55:48.881Z,32.4
2019-01-25T06:56:38.661Z,32.5
2019-01-25T06:57:29.010Z,32.4
2019-01-25T06:58:19.063Z,32.4
2019-01-25T06:59:08.823Z,32.4
2019-01-25T06:59:59.191Z,32.3
2019-01-25T07:00:48.955Z,32.2
2019-01-25T07:01:39.327Z,32.1
2019-01-25T07:02:29.370Z,32
2019-01-25T07:03:19.388Z,31.9
2019-01-25T07:04:11.095Z,31.9
2019-01-25T07:06:35.498Z,31.7
2019-01-25T07:07:25.384Z,31.6
2019-01-25T07:08:15.665Z,31.6
2019-01-25T07:09:05.437Z,31.5
2019-01-25T07:09:56.060Z,31.4
2019-01-25T07:10:45.577Z,31.4
2019-01-25T07:11:43.068Z,31.3
2019-01-25T07:12:25.617Z,31.3
2019-01-25T07:13:15.978Z,31.3
2019-01-25T07:14:06.407Z,31.2
2019-01-25T07:14:56.360Z,31.2
2019-01-25T07:15:46.427Z,31.1
2019-01-25T07:16:36.477Z,31.1
2019-01-25T07:17:25.697Z,31.1
2019-01-25T07:18:15.739Z,31.1
2019-01-25T07:19:06.398Z,31
2019-01-25T07:19:56.124Z,31
2019-01-25T07:20:46.744Z,30.9
2019-01-25T07:21:36.802Z,30.9
2019-01-25T07:22:26.336Z,30.9
2019-01-25T07:23:16.352Z,30.9
2019-01-25T07:24:06.409Z,30.9
2019-01-25T07:25:02.586Z,30.8
2019-01-25T07:25:46.819Z,30.8
2019-01-25T07:26:37.130Z,30.8
2019-01-25T07:27:26.646Z,30.8
2019-01-25T07:28:16.426Z,30.8
2019-01-25T07:29:07.218Z,30.8
2019-01-25T07:29:56.820Z,30.8
2019-01-25T07:30:47.134Z,30.8
2019-01-25T07:31:37.686Z,30.7
2019-01-25T07:32:27.139Z,30.7
2019-01-25T07:33:17.546Z,30.7
2019-01-25T07:34:07.319Z,30.6
2019-01-25T07:34:57.071Z,30.6
2019-01-25T07:35:47.326Z,30.6
2019-01-25T07:36:38.080Z,30.6
2019-01-25T07:37:27.418Z,30.5
2019-01-25T07:38:17.373Z,30.5
2019-01-25T07:39:07.981Z,30.4
2019-01-25T07:39:58.391Z,30.4
2019-01-25T07:40:47.921Z,30.4
2019-01-25T07:41:37.678Z,30.4
2019-01-25T07:42:28.246Z,30.4
2019-01-25T07:43:18.110Z,30.3
2019-01-25T07:44:08.448Z,30.3
2019-01-25T07:44:58.716Z,30.3
2019-01-25T07:45:48.959Z,30.3
2019-01-25T07:46:38.530Z,30.3
2019-01-25T07:47:28.623Z,30.3
2019-01-25T07:48:18.654Z,30.2
2019-01-25T07:49:09.183Z,30.2
2019-01-25T07:49:58.033Z,30.2
2019-01-25T07:50:48.830Z,30.1
2019-01-25T07:51:38.678Z,30.1
2019-01-25T07:52:29.254Z,30.1
2019-01-25T07:53:19.020Z,30.1
2019-01-25T07:54:09.140Z,30.1
2019-01-25T07:54:58.205Z,30.1
2019-01-25T07:55:49.323Z,30.1
2019-01-25T07:56:39.524Z,30.1
2019-01-25T07:57:29.265Z,30.1
2019-01-25T07:58:19.372Z,30
2019-01-25T07:59:09.287Z,30
2019-01-25T07:59:58.832Z,30
2019-01-25T08:00:49.331Z,30
2019-01-25T08:01:39.809Z,30
2019-01-25T08:02:28.601Z,30
2019-01-25T08:03:19.090Z,29.9
2019-01-25T08:04:09.547Z,29.9
2019-01-25T08:04:59.488Z,29.9
2019-01-25T08:05:50.242Z,29.9
2019-01-25T08:06:39.077Z,29.9
2019-01-25T08:07:30.190Z,29.9
2019-01-25T08:08:19.997Z,29.9
2019-01-25T08:09:10.180Z,29.9
2019-01-25T08:10:00.781Z,29.9
2019-01-25T08:10:50.387Z,29.9
2019-01-25T08:11:39.657Z,29.8
2019-01-25T08:12:30.406Z,29.8
2019-01-25T08:13:20.522Z,29.8
2019-01-25T08:14:10.436Z,29.8
2019-01-25T08:15:00.542Z,29.8
2019-01-25T08:15:50.599Z,29.8
2019-01-25T08:16:40.606Z,29.8
2019-01-25T08:17:30.441Z,29.8
2019-01-25T08:18:20.366Z,29.8
2019-01-25T08:19:11.033Z,29.8
2019-01-25T08:20:03.320Z,29.8
2019-01-25T08:20:50.916Z,29.7
2019-01-25T08:21:42.301Z,29.7
2019-01-25T08:22:31.618Z,29.7
2019-01-25T08:23:21.462Z,29.7
2019-01-25T08:24:10.538Z,29.7
2019-01-25T08:25:01.786Z,29.6
2019-01-25T08:25:51.698Z,29.6
2019-01-25T08:26:43.290Z,29.6
2019-01-25T08:27:31.646Z,29.6
2019-01-25T08:28:21.806Z,29.5
2019-01-25T08:29:11.163Z,29.4
2019-01-25T08:30:01.425Z,29.4
2019-01-25T08:30:51.705Z,29.4
2019-01-25T08:31:41.795Z,29.3
2019-01-25T08:32:31.972Z,29.3
2019-01-25T08:33:22.551Z,29.3
2019-01-25T08:34:12.057Z,29.2
2019-01-25T08:35:02.830Z,29.2
2019-01-25T08:35:51.772Z,29.1
2019-01-25T08:36:41.924Z,29.1
2019-01-25T08:37:31.795Z,29.1
2019-01-25T08:38:22.262Z,29.1
2019-01-25T08:39:12.562Z,29.1
2019-01-25T08:40:02.315Z,29
2019-01-25T08:40:52.514Z,29
2019-01-25T08:41:42.259Z,28.9
2019-01-25T08:42:32.177Z,28.9
2019-01-25T08:43:22.139Z,28.9
2019-01-25T08:44:12.254Z,28.9
2019-01-25T08:45:05.871Z,28.9
2019-01-25T08:45:55.085Z,28.9
2019-01-25T08:46:42.362Z,28.8
2019-01-25T08:47:32.845Z,28.8
2019-01-25T08:48:21.736Z,28.8
2019-01-25T08:49:13.019Z,28.8
2019-01-25T08:50:04.924Z,28.8
2019-01-25T08:50:52.969Z,28.8
2019-01-25T08:51:44.664Z,28.8
2019-01-25T08:52:33.393Z,28.7
2019-01-25T08:53:23.309Z,28.7
2019-01-25T08:54:14.166Z,28.7
2019-01-25T08:55:03.037Z,28.6
2019-01-25T08:55:53.416Z,28.6
2019-01-25T08:56:42.957Z,28.6
2019-01-25T08:57:33.270Z,28.6
2019-01-25T08:58:23.591Z,28.6
2019-01-25T08:59:13.976Z,28.6
2019-01-25T09:00:03.615Z,28.6
2019-01-25T09:00:55.379Z,28.6
2019-01-25T09:01:42.841Z,28.6
2019-01-25T09:02:33.486Z,28.6
2019-01-25T09:03:22.705Z,28.6
2019-01-25T09:04:12.490Z,28.6
2019-01-25T09:05:03.832Z,28.5
2019-01-25T09:05:53.943Z,28.5
2019-01-25T09:06:43.768Z,28.5
2019-01-25T09:07:33.853Z,28.5
2019-01-25T09:08:23.873Z,28.5
2019-01-25T09:09:13.350Z,28.4
2019-01-25T09:10:04.022Z,28.4
2019-01-25T09:10:53.198Z,28.4
2019-01-25T09:11:43.545Z,28.4
2019-01-25T09:12:34.422Z,28.4
2019-01-25T09:13:24.474Z,28.4
2019-01-25T09:14:14.542Z,28.4
2019-01-25T09:15:03.329Z,28.4
2019-01-25T09:15:54.392Z,28.4
2019-01-25T09:16:44.169Z,28.4
2019-01-25T09:17:33.922Z,28.3
2019-01-25T09:18:24.290Z,28.2
2019-01-25T09:19:13.494Z,28.1
2019-01-25T09:20:04.800Z,28
2019-01-25T09:20:55.589Z,27.9
2019-01-25T09:21:44.501Z,27.9
2019-01-25T09:24:15.237Z,27.8
2019-01-25T09:25:05.037Z,27.8
2019-01-25T09:26:02.311Z,27.8
2019-01-25T09:26:44.538Z,27.7
2019-01-25T09:27:35.494Z,27.7
2019-01-25T09:28:24.950Z,27.7
2019-01-25T09:29:15.009Z,27.6
2019-01-25T09:30:05.349Z,27.6
2019-01-25T09:30:55.116Z,27.6
2019-01-25T09:31:45.754Z,27.6
2019-01-25T09:32:35.534Z,27.6
2019-01-25T09:33:25.715Z,27.6
2019-01-25T09:34:15.941Z,27.6
2019-01-25T09:35:07.421Z,27.6
2019-01-25T09:35:55.763Z,27.5
2019-01-25T09:36:45.840Z,27.5
2019-01-25T09:37:36.158Z,27.5
2019-01-25T09:38:25.935Z,27.5
2019-01-25T09:39:15.988Z,27.5
2019-01-25T09:40:06.030Z,27.5
2019-01-25T09:40:55.785Z,27.4
2019-01-25T09:41:45.863Z,27.5
2019-01-25T09:42:36.799Z,27.4
2019-01-25T09:43:25.698Z,27.4
2019-01-25T09:44:16.363Z,27.4
2019-01-25T09:45:06.093Z,27.4
2019-01-25T09:45:56.700Z,27.4
2019-01-25T09:46:45.640Z,27.4
2019-01-25T09:47:35.425Z,27.4
2019-01-25T10:29:36.219Z,26.4
2019-01-25T10:30:25.461Z,26.4
2019-01-25T10:31:16.627Z,26.4
2019-01-25T10:32:06.978Z,26.4
2019-01-25T10:32:55.619Z,26.4
2019-01-25T10:33:46.546Z,26.3
2019-01-25T10:34:36.300Z,26.3
2019-01-25T10:35:26.412Z,26.3
2019-01-25T10:36:16.961Z,26.3
2019-01-25T10:37:06.457Z,26.3
2019-01-25T10:37:57.096Z,26.3
2019-01-25T10:38:47.150Z,26.2
2019-01-25T10:39:36.909Z,26.2
2019-01-25T10:40:26.690Z,26.2
2019-01-25T10:41:17.592Z,26.2
2019-01-25T10:42:07.653Z,26.2
2019-01-25T10:42:59.313Z,26.2
2019-01-25T10:43:47.199Z,26.1
2019-01-25T10:44:37.261Z,26.1
2019-01-25T10:45:27.322Z,26.1
2019-01-25T10:46:17.678Z,26.1
2019-01-25T10:47:08.062Z,26.1
2019-01-25T10:47:58.083Z,26.1
2019-01-25T10:48:46.971Z,26.1
2019-01-25T10:49:37.645Z,26.1
2019-01-25T10:50:28.226Z,26.1
2019-01-25T10:51:17.762Z,26.1
2019-01-25T10:52:09.654Z,26.1
2019-01-25T10:52:57.851Z,26.1
2019-01-25T10:53:48.423Z,26.1
2019-01-25T10:54:38.514Z,26.1
2019-01-25T10:55:28.562Z,26.1
2019-01-25T10:56:18.055Z,26.1
2019-01-25T10:57:08.386Z,26.1
2019-01-25T10:57:58.175Z,26.1
2019-01-25T10:58:48.487Z,26
2019-01-25T10:59:38.271Z,26
2019-01-25T11:00:28.914Z,26
2019-01-25T11:01:18.667Z,25.9
2019-01-25T11:02:09.004Z,25.9
2019-01-25T11:03:04.093Z,25.9
2019-01-25T11:03:50.679Z,25.9
2019-01-25T11:04:39.182Z,25.8
2019-01-25T11:05:28.709Z,25.8
2019-01-25T11:06:19.269Z,25.8
2019-01-25T11:07:09.369Z,25.8
2019-01-25T11:07:59.166Z,25.7
2019-01-25T11:08:49.554Z,25.6
2019-01-25T11:09:43.832Z,25.6
2019-01-25T11:10:29.319Z,25.6
2019-01-25T11:11:19.644Z,25.6
2019-01-25T11:12:09.674Z,25.6
2019-01-25T11:13:06.153Z,25.5
2019-01-25T11:13:49.831Z,25.5
2019-01-25T11:14:39.903Z,25.5
2019-01-25T11:15:29.634Z,25.5
2019-01-25T11:16:19.701Z,25.4
2019-01-25T11:17:09.783Z,25.4
2019-01-25T11:18:00.106Z,25.4
2019-01-25T11:18:49.590Z,25.4
2019-01-25T11:19:39.663Z,25.4
2019-01-25T11:20:30.330Z,25.4
2019-01-25T11:21:20.094Z,25.4
2019-01-25T11:22:09.518Z,25.3
2019-01-25T11:23:00.467Z,25.3
2019-01-25T11:23:49.928Z,25.3
2019-01-25T11:24:40.266Z,25.3
2019-01-25T11:25:30.348Z,25.3
2019-01-25T11:26:20.379Z,25.3
2019-01-25T11:27:10.684Z,25.3
2019-01-25T11:28:00.782Z,25.3
2019-01-25T11:28:50.828Z,25.3
2019-01-25T11:29:40.877Z,25.3
2019-01-25T11:30:31.008Z,25.2
2019-01-25T11:31:20.495Z,25.3
2019-01-25T11:32:10.830Z,25.2
2019-01-25T11:33:01.118Z,25.2
2019-01-25T11:33:50.622Z,25.2
2019-01-25T11:34:41.214Z,25.2
2019-01-25T11:35:30.712Z,25.2
2019-01-25T11:36:20.775Z,25.2
2019-01-25T11:37:11.395Z,25.2
2019-01-25T11:38:01.468Z,25.2
2019-01-25T11:38:51.224Z,25.1
2019-01-25T11:39:41.297Z,25.1
2019-01-25T11:40:31.610Z,25.1
2019-01-25T11:41:21.732Z,25.1
2019-01-25T11:42:11.503Z,25.1
2019-01-25T11:43:09.280Z,25.1
2019-01-25T11:43:51.601Z,25.1
2019-01-25T11:44:41.062Z,25.1
2019-01-25T11:45:31.977Z,25.1
2019-01-25T11:46:22.069Z,25.1
2019-01-25T11:47:12.082Z,25.1
2019-01-25T11:48:03.594Z,25
2019-01-25T11:48:52.174Z,25
2019-01-25T11:49:42.009Z,25
2019-01-25T11:50:32.310Z,25
2019-01-25T11:51:23.619Z,24.9
2019-01-25T11:52:12.302Z,24.9
2019-01-25T11:53:02.505Z,24.9
2019-01-25T11:53:52.552Z,24.9
2019-01-25T11:54:42.573Z,24.9
2019-01-25T11:55:32.076Z,24.8
2019-01-25T11:56:22.206Z,24.9
2019-01-25T11:57:12.751Z,24.8